MV Causeway Supplier — ZR2426 — position and weather

sailwx.info

Track history (hours):
 
Tides and Currents Weather Stations Pressure Air Temp Water Temp Dewpoint Dewpoint Depression Visibility Wind Speed Wind Dir Waves Ship Positions

MV Causeway Supplier

Last reported at 2016-Jun-23 10:16 UTC. Time now 2016-Jun-24 22:16 UTC.
Position S 29°54' E 031°00'.

Length 22 m; draft 2.7 m.

Type: . MMSI: 601041200.

Date/timePositionNaut miles runAvg speedWind from/ knotsBaromVisibWave heightAir tempDewpointWater temp
2016-Jun-23 10:16S 29°54' E 031°00'2 2.8
2016-Jun-23 09:33S 29°52' E 031°01'7 7.1
2016-Jun-23 08:33S 29°47' E 031°07'2 2.0
2016-Jun-23 07:33S 29°45' E 031°08'9 4.5
2016-Jun-23 05:33S 29°52' E 031°01'0 0.0
2016-Jun-23 04:33S 29°52' E 031°01'8 7.6
2016-Jun-23 03:33S 29°48' E 031°08'5 5.2
2016-Jun-23 02:33S 29°44' E 031°12'0 0.0
2016-Jun-23 01:33S 29°44' E 031°12'4 3.9
2016-Jun-23 00:33S 29°47' E 031°09'8 8.3
2016-Jun-22 23:33S 29°52' E 031°02'2 2.3
2016-Jun-22 22:33S 29°54' E 031°00'0 0.0
2016-Jun-22 21:33S 29°54' E 031°00'0 0.0
2016-Jun-22 20:33S 29°54' E 031°00'1 0.5
2016-Jun-22 19:33S 29°54' E 031°00'2 1.9
2016-Jun-22 18:34S 29°52' E 031°02'1 1.0
2016-Jun-22 17:33S 29°52' E 031°01'0 0.0
2016-Jun-22 16:33S 29°52' E 031°01'0 0.1
2016-Jun-22 15:33S 29°52' E 031°01'7 7.5
2016-Jun-22 14:34S 29°49' E 031°09'0 0.2
2016-Jun-22 13:34S 29°50' E 031°09'1 0.5
2016-Jun-22 12:34S 29°50' E 031°09'0 0.1
2016-Jun-22 11:33S 29°50' E 031°09'6 5.7
2016-Jun-22 10:34S 29°53' E 031°03'2 1.9
2016-Jun-22 09:34S 29°52' E 031°01'2 2.0
2016-Jun-22 08:34S 29°54' E 031°00'0 0.0
2016-Jun-22 07:33S 29°54' E 031°00'0 0.0
2016-Jun-21 19:22S 29°54' E 031°00'2 2.4
2016-Jun-21 18:32S 29°52' E 031°01'2 1.8
2016-Jun-21 17:33S 29°52' E 031°03'7 7.0
2016-Jun-21 16:33S 29°49' E 031°10'3 3.2
2016-Jun-21 15:33S 29°48' E 031°13'2 1.6
2016-Jun-21 14:33S 29°49' E 031°12'2 1.9
2016-Jun-21 13:33S 29°51' E 031°10'2 1.7
2016-Jun-21 12:33S 29°51' E 031°09'7 6.7
2016-Jun-21 11:33S 29°52' E 031°01'2 2.0
2016-Jun-21 10:33S 29°54' E 031°00'0 0.0
2016-Jun-21 09:33S 29°54' E 031°00'0 0.0
2016-Jun-20 14:22S 29°54' E 031°00'2 2.5
2016-Jun-20 13:33S 29°52' E 031°01'6 6.3
2016-Jun-20 12:33S 29°52' E 031°08'1 1.5
2016-Jun-20 11:33S 29°54' E 031°08'3 2.7
2016-Jun-20 10:33S 29°53' E 031°05'4 3.8
2016-Jun-20 09:33S 29°52' E 031°01'2 2.1
2016-Jun-20 08:34S 29°54' E 031°00'0 0.0
2016-Jun-20 05:23S 29°54' E 031°00'0 0.0
2016-Jun-20 04:33S 29°54' E 031°00'0 0.0
2016-Jun-20 03:33S 29°54' E 031°00'0 0.0
2016-Jun-20 02:33S 29°54' E 031°00'0 0.0
2016-Jun-20 01:33S 29°54' E 031°00'0 0.0
2016-Jun-20 00:33S 29°54' E 031°00'0 0.0
2016-Jun-19 23:33S 29°54' E 031°00'0 0.0
2016-Jun-19 22:33S 29°54' E 031°00'0 0.0
2016-Jun-19 21:33S 29°54' E 031°00'0 0.0
2016-Jun-19 20:33S 29°54' E 031°00'0 0.0
2016-Jun-19 19:33S 29°54' E 031°00'0 0.0
2016-Jun-19 18:33S 29°54' E 031°00'0 0.0
2016-Jun-19 17:33S 29°54' E 031°00'0 0.0
2016-Jun-19 16:33S 29°54' E 031°00'0 0.0
2016-Jun-19 15:33S 29°54' E 031°00'0 0.0
2016-Jun-19 14:34S 29°54' E 031°00'0 0.0
2016-Jun-19 13:34S 29°54' E 031°00'0 0.0
2016-Jun-19 12:33S 29°54' E 031°00'0 0.0
2016-Jun-19 11:33S 29°54' E 031°00'0 0.0
2016-Jun-19 10:33S 29°54' E 031°00'0 0.0
2016-Jun-19 09:33S 29°54' E 031°00'0 0.0
2016-Jun-19 08:33S 29°54' E 031°00'0 0.0
2016-Jun-19 07:33S 29°54' E 031°00'0 0.0
2016-Jun-19 06:33S 29°54' E 031°00'0 0.0
2016-Jun-19 05:33S 29°54' E 031°00'0 0.0
2016-Jun-19 04:33S 29°54' E 031°00'0 0.0
2016-Jun-19 03:33S 29°54' E 031°00'0 0.0
2016-Jun-19 02:33S 29°54' E 031°00'0 0.0
2016-Jun-19 01:33S 29°54' E 031°00'0 0.0
2016-Jun-19 00:33S 29°54' E 031°00'0 0.0
2016-Jun-18 23:33S 29°54' E 031°00'0 0.0
2016-Jun-18 22:34S 29°54' E 031°00'0 0.0
2016-Jun-18 21:34S 29°54' E 031°00'0 0.0
2016-Jun-18 20:33S 29°54' E 031°00'0 0.0
2016-Jun-18 19:33S 29°54' E 031°00'0 0.0
2016-Jun-18 18:31S 29°54' E 031°00'0 0.0
2016-Jun-18 17:34S 29°54' E 031°00'0 0.0
2016-Jun-18 16:34S 29°54' E 031°00'0 0.0
2016-Jun-18 15:33S 29°54' E 031°00'0 0.0
2016-Jun-18 14:33S 29°54' E 031°00'0 0.0
2016-Jun-18 13:33S 29°54' E 031°00'2 1.6
2016-Jun-18 12:33S 29°52' E 031°01'8 8.3
2016-Jun-18 11:33S 29°49' E 031°09'2 1.5
2016-Jun-18 10:33S 29°49' E 031°11'5 5.1
2016-Jun-18 09:33S 29°51' E 031°06'5 4.5
2016-Jun-18 08:33S 29°52' E 031°01'0 0.0
2016-Jun-18 07:33S 29°52' E 031°01'2 2.0
2016-Jun-18 06:33S 29°54' E 031°00'0 0.0
2016-Jun-17 09:33S 29°54' E 031°00'0 0.0
2016-Jun-17 08:33S 29°54' E 031°00'0 0.0
2016-Jun-17 07:33S 29°54' E 031°00'0 0.0
2016-Jun-17 06:33S 29°54' E 031°00'0 0.0
2016-Jun-17 05:33S 29°54' E 031°00'0 0.0
2016-Jun-15 09:33S 29°54' E 031°00'3 2.7
2016-Jun-15 08:33S 29°53' E 031°03'9 9.2
2016-Jun-15 07:33S 29°46' E 031°11'1 1.3
2016-Jun-15 06:33S 29°47' E 031°11'2 2.0
2016-Jun-15 05:33S 29°49' E 031°11'6 5.7
2016-Jun-15 04:33S 29°52' E 031°04'4 4.3
2016-Jun-15 03:33S 29°54' E 031°00'0 0.0
2016-Jun-14 12:30S 29°54' E 031°00'2 2.1
2016-Jun-14 11:34S 29°52' E 031°01'5 5.2
2016-Jun-14 10:33S 29°51' E 031°07'1 1.4
2016-Jun-14 09:33S 29°52' E 031°08'4 4.3
2016-Jun-14 08:33S 29°52' E 031°03'2 2.1
2016-Jun-14 07:29S 29°52' E 031°01'2 2.1
2016-Jun-14 06:33S 29°54' E 031°00'0 0.0
2016-Jun-13 10:34S 29°54' E 031°00'  
Track history (hours):
 
Tides and Currents Weather Stations Pressure Air Temp Water Temp Dewpoint Dewpoint Depression Visibility Wind Speed Wind Dir Waves Ship Positions

MV Causeway Supplier

Last reported at 2016-Jun-23 10:16 UTC. Time now 2016-Jun-24 22:16 UTC.
Position S 29°54' E 031°00'.

Length 22 m; draft 2.7 m.

Type: . MMSI: 601041200.

Date/timePositionNaut miles runAvg speedWind from/ knotsBaromVisibWave heightAir tempDewpointWater temp
2016-Jun-23 10:16S 29°54' E 031°00'2 2.8
2016-Jun-23 09:33S 29°52' E 031°01'7 7.1
2016-Jun-23 08:33S 29°47' E 031°07'2 2.0
2016-Jun-23 07:33S 29°45' E 031°08'9 4.5
2016-Jun-23 05:33S 29°52' E 031°01'0 0.0
2016-Jun-23 04:33S 29°52' E 031°01'8 7.6
2016-Jun-23 03:33S 29°48' E 031°08'5 5.2
2016-Jun-23 02:33S 29°44' E 031°12'0 0.0
2016-Jun-23 01:33S 29°44' E 031°12'4 3.9
2016-Jun-23 00:33S 29°47' E 031°09'8 8.3
2016-Jun-22 23:33S 29°52' E 031°02'2 2.3
2016-Jun-22 22:33S 29°54' E 031°00'0 0.0
2016-Jun-22 21:33S 29°54' E 031°00'0 0.0
2016-Jun-22 20:33S 29°54' E 031°00'1 0.5
2016-Jun-22 19:33S 29°54' E 031°00'2 1.9
2016-Jun-22 18:34S 29°52' E 031°02'1 1.0
2016-Jun-22 17:33S 29°52' E 031°01'0 0.0
2016-Jun-22 16:33S 29°52' E 031°01'0 0.1
2016-Jun-22 15:33S 29°52' E 031°01'7 7.5
2016-Jun-22 14:34S 29°49' E 031°09'0 0.2
2016-Jun-22 13:34S 29°50' E 031°09'1 0.5
2016-Jun-22 12:34S 29°50' E 031°09'0 0.1
2016-Jun-22 11:33S 29°50' E 031°09'6 5.7
2016-Jun-22 10:34S 29°53' E 031°03'2 1.9
2016-Jun-22 09:34S 29°52' E 031°01'2 2.0
2016-Jun-22 08:34S 29°54' E 031°00'0 0.0
2016-Jun-22 07:33S 29°54' E 031°00'0 0.0
2016-Jun-21 19:22S 29°54' E 031°00'2 2.4
2016-Jun-21 18:32S 29°52' E 031°01'2 1.8
2016-Jun-21 17:33S 29°52' E 031°03'7 7.0
2016-Jun-21 16:33S 29°49' E 031°10'3 3.2
2016-Jun-21 15:33S 29°48' E 031°13'2 1.6
2016-Jun-21 14:33S 29°49' E 031°12'2 1.9
2016-Jun-21 13:33S 29°51' E 031°10'2 1.7
2016-Jun-21 12:33S 29°51' E 031°09'7 6.7
2016-Jun-21 11:33S 29°52' E 031°01'2 2.0
2016-Jun-21 10:33S 29°54' E 031°00'0 0.0
2016-Jun-21 09:33S 29°54' E 031°00'0 0.0
2016-Jun-20 14:22S 29°54' E 031°00'2 2.5
2016-Jun-20 13:33S 29°52' E 031°01'6 6.3
2016-Jun-20 12:33S 29°52' E 031°08'1 1.5
2016-Jun-20 11:33S 29°54' E 031°08'3 2.7
2016-Jun-20 10:33S 29°53' E 031°05'4 3.8
2016-Jun-20 09:33S 29°52' E 031°01'2 2.1
2016-Jun-20 08:34S 29°54' E 031°00'0 0.0
2016-Jun-20 05:23S 29°54' E 031°00'0 0.0
2016-Jun-20 04:33S 29°54' E 031°00'0 0.0
2016-Jun-20 03:33S 29°54' E 031°00'0 0.0
2016-Jun-20 02:33S 29°54' E 031°00'0 0.0
2016-Jun-20 01:33S 29°54' E 031°00'0 0.0
2016-Jun-20 00:33S 29°54' E 031°00'0 0.0
2016-Jun-19 23:33S 29°54' E 031°00'0 0.0
2016-Jun-19 22:33S 29°54' E 031°00'0 0.0
2016-Jun-19 21:33S 29°54' E 031°00'0 0.0
2016-Jun-19 20:33S 29°54' E 031°00'0 0.0
2016-Jun-19 19:33S 29°54' E 031°00'0 0.0
2016-Jun-19 18:33S 29°54' E 031°00'0 0.0
2016-Jun-19 17:33S 29°54' E 031°00'0 0.0
2016-Jun-19 16:33S 29°54' E 031°00'0 0.0
2016-Jun-19 15:33S 29°54' E 031°00'0 0.0
2016-Jun-19 14:34S 29°54' E 031°00'0 0.0
2016-Jun-19 13:34S 29°54' E 031°00'0 0.0
2016-Jun-19 12:33S 29°54' E 031°00'0 0.0
2016-Jun-19 11:33S 29°54' E 031°00'0 0.0
2016-Jun-19 10:33S 29°54' E 031°00'0 0.0
2016-Jun-19 09:33S 29°54' E 031°00'0 0.0
2016-Jun-19 08:33S 29°54' E 031°00'0 0.0
2016-Jun-19 07:33S 29°54' E 031°00'0 0.0
2016-Jun-19 06:33S 29°54' E 031°00'0 0.0
2016-Jun-19 05:33S 29°54' E 031°00'0 0.0
2016-Jun-19 04:33S 29°54' E 031°00'0 0.0
2016-Jun-19 03:33S 29°54' E 031°00'0 0.0
2016-Jun-19 02:33S 29°54' E 031°00'0 0.0
2016-Jun-19 01:33S 29°54' E 031°00'0 0.0
2016-Jun-19 00:33S 29°54' E 031°00'0 0.0
2016-Jun-18 23:33S 29°54' E 031°00'0 0.0
2016-Jun-18 22:34S 29°54' E 031°00'0 0.0
2016-Jun-18 21:34S 29°54' E 031°00'0 0.0
2016-Jun-18 20:33S 29°54' E 031°00'0 0.0
2016-Jun-18 19:33S 29°54' E 031°00'0 0.0
2016-Jun-18 18:31S 29°54' E 031°00'0 0.0
2016-Jun-18 17:34S 29°54' E 031°00'0 0.0
2016-Jun-18 16:34S 29°54' E 031°00'0 0.0
2016-Jun-18 15:33S 29°54' E 031°00'0 0.0
2016-Jun-18 14:33S 29°54' E 031°00'0 0.0
2016-Jun-18 13:33S 29°54' E 031°00'2 1.6
2016-Jun-18 12:33S 29°52' E 031°01'8 8.3
2016-Jun-18 11:33S 29°49' E 031°09'2 1.5
2016-Jun-18 10:33S 29°49' E 031°11'5 5.1
2016-Jun-18 09:33S 29°51' E 031°06'5 4.5
2016-Jun-18 08:33S 29°52' E 031°01'0 0.0
2016-Jun-18 07:33S 29°52' E 031°01'2 2.0
2016-Jun-18 06:33S 29°54' E 031°00'0 0.0
2016-Jun-17 09:33S 29°54' E 031°00'0 0.0
2016-Jun-17 08:33S 29°54' E 031°00'0 0.0
2016-Jun-17 07:33S 29°54' E 031°00'0 0.0
2016-Jun-17 06:33S 29°54' E 031°00'0 0.0
2016-Jun-17 05:33S 29°54' E 031°00'0 0.0
2016-Jun-15 09:33S 29°54' E 031°00'3 2.7
2016-Jun-15 08:33S 29°53' E 031°03'9 9.2
2016-Jun-15 07:33S 29°46' E 031°11'1 1.3
2016-Jun-15 06:33S 29°47' E 031°11'2 2.0
2016-Jun-15 05:33S 29°49' E 031°11'6 5.7
2016-Jun-15 04:33S 29°52' E 031°04'4 4.3
2016-Jun-15 03:33S 29°54' E 031°00'0 0.0
2016-Jun-14 12:30S 29°54' E 031°00'2 2.1
2016-Jun-14 11:34S 29°52' E 031°01'5 5.2
2016-Jun-14 10:33S 29°51' E 031°07'1 1.4
2016-Jun-14 09:33S 29°52' E 031°08'4 4.3
2016-Jun-14 08:33S 29°52' E 031°03'2 2.1
2016-Jun-14 07:29S 29°52' E 031°01'2 2.1
2016-Jun-14 06:33S 29°54' E 031°00'0 0.0
2016-Jun-13 10:34S 29°54' E 031°00'  

Dump ship's entire track history